createdAt,value
2018-07-22T00:00:20.156Z,935.65
2018-07-22T00:01:20.157Z,935.67
2018-07-22T00:02:20.157Z,935.64
2018-07-22T00:03:20.160Z,935.66
2018-07-22T00:04:20.158Z,935.64
2018-07-22T00:05:20.158Z,935.64
2018-07-22T00:06:20.160Z,935.62
2018-07-22T00:07:20.161Z,935.56
2018-07-22T00:08:20.163Z,935.58
2018-07-22T00:09:20.160Z,935.56
2018-07-22T00:10:20.165Z,935.60
2018-07-22T00:11:20.164Z,935.59
2018-07-22T00:12:20.165Z,935.58
2018-07-22T00:13:20.164Z,935.62
2018-07-22T00:14:20.166Z,935.61
2018-07-22T00:15:20.167Z,935.57
2018-07-22T00:16:20.166Z,935.55
2018-07-22T00:17:20.167Z,935.53
2018-07-22T00:18:20.168Z,935.55
2018-07-22T00:19:20.169Z,935.53
2018-07-22T00:20:20.168Z,935.49
2018-07-22T00:21:20.168Z,935.52
2018-07-22T00:22:20.169Z,935.52
2018-07-22T00:23:20.174Z,935.52
2018-07-22T00:24:20.171Z,935.52
2018-07-22T00:25:20.174Z,935.54
2018-07-22T00:26:20.171Z,935.53
2018-07-22T00:27:20.173Z,935.49
2018-07-22T00:28:20.172Z,935.49
2018-07-22T00:29:20.193Z,935.51
2018-07-22T00:30:20.174Z,935.53
2018-07-22T00:31:20.176Z,935.51
2018-07-22T00:32:20.175Z,935.50
2018-07-22T00:33:20.175Z,935.52
2018-07-22T00:34:20.177Z,935.54
2018-07-22T00:35:20.179Z,935.54
2018-07-22T00:36:20.178Z,935.55
2018-07-22T00:37:20.181Z,935.52
2018-07-22T00:38:20.179Z,935.51
2018-07-22T00:39:20.179Z,935.54
2018-07-22T00:40:20.181Z,935.57
2018-07-22T00:41:20.179Z,935.61
2018-07-22T00:42:20.180Z,935.55
2018-07-22T00:43:20.181Z,935.62
2018-07-22T00:44:20.180Z,935.65
2018-07-22T00:45:20.182Z,935.65
2018-07-22T00:46:20.184Z,935.61
2018-07-22T00:47:20.184Z,935.64
2018-07-22T00:48:20.183Z,935.63
2018-07-22T00:49:20.184Z,935.64
2018-07-22T00:50:20.185Z,935.64
2018-07-22T00:51:20.186Z,935.66
2018-07-22T00:52:20.185Z,935.67
2018-07-22T00:53:20.186Z,935.64
2018-07-22T00:54:20.186Z,935.67
2018-07-22T00:55:20.187Z,935.67
2018-07-22T00:56:20.187Z,935.64
2018-07-22T00:57:20.187Z,935.62
2018-07-22T00:58:20.188Z,935.64
2018-07-22T00:59:20.192Z,935.66
2018-07-22T01:00:20.250Z,935.64
2018-07-22T01:01:20.190Z,935.61
2018-07-22T01:02:20.191Z,935.65
2018-07-22T01:03:20.191Z,935.61
2018-07-22T01:04:20.193Z,935.61
2018-07-22T01:05:20.192Z,935.62
2018-07-22T01:06:20.193Z,935.58
2018-07-22T01:07:20.193Z,935.60
2018-07-22T01:08:20.193Z,935.57
2018-07-22T01:09:20.194Z,935.60
2018-07-22T01:10:20.195Z,935.59
2018-07-22T01:11:20.195Z,935.57
2018-07-22T01:12:20.194Z,935.49
2018-07-22T01:13:20.196Z,935.53
2018-07-22T01:14:20.203Z,935.48
2018-07-22T01:15:20.197Z,935.51
2018-07-22T01:16:20.198Z,935.46
2018-07-22T01:17:20.197Z,935.46
2018-07-22T01:18:20.198Z,935.45
2018-07-22T01:19:20.200Z,935.48
2018-07-22T01:20:20.199Z,935.51
2018-07-22T01:21:20.199Z,935.45
2018-07-22T01:22:20.200Z,935.47
2018-07-22T01:23:20.200Z,935.44
2018-07-22T01:24:20.200Z,935.44
2018-07-22T01:25:20.200Z,935.43
2018-07-22T01:26:20.205Z,935.40
2018-07-22T01:27:20.202Z,935.41
2018-07-22T01:28:20.202Z,935.37
2018-07-22T01:29:20.204Z,935.43
2018-07-22T01:30:20.207Z,935.45
2018-07-22T01:31:20.203Z,935.43
2018-07-22T01:32:20.204Z,935.43
2018-07-22T01:33:20.204Z,935.40
2018-07-22T01:34:20.205Z,935.40
2018-07-22T01:35:20.205Z,935.40
2018-07-22T01:36:20.204Z,935.37
2018-07-22T01:37:20.205Z,935.39
2018-07-22T01:38:20.206Z,935.36
2018-07-22T01:39:20.206Z,935.32
2018-07-22T01:40:20.206Z,935.35
2018-07-22T01:41:20.207Z,935.37
2018-07-22T01:42:20.208Z,935.34
2018-07-22T01:43:20.256Z,935.32
2018-07-22T01:44:20.209Z,935.30
2018-07-22T01:45:20.210Z,935.34
2018-07-22T01:46:20.211Z,935.36
2018-07-22T01:47:20.211Z,935.39
2018-07-22T01:48:20.211Z,935.34
2018-07-22T01:49:20.212Z,935.32
2018-07-22T01:50:20.213Z,935.31
2018-07-22T01:51:20.213Z,935.36
2018-07-22T01:52:20.212Z,935.36
2018-07-22T01:53:20.215Z,935.36
2018-07-22T01:54:20.213Z,935.33
2018-07-22T01:55:20.214Z,935.34
2018-07-22T01:56:20.213Z,935.32
2018-07-22T01:57:20.215Z,935.32
2018-07-22T01:58:20.216Z,935.29
2018-07-22T01:59:20.217Z,935.29
2018-07-22T02:00:20.216Z,935.29
2018-07-22T02:01:20.217Z,935.35
2018-07-22T02:02:20.217Z,935.32
2018-07-22T02:03:20.218Z,935.31
2018-07-22T02:04:20.218Z,935.32
2018-07-22T02:05:20.218Z,935.29
2018-07-22T02:06:20.219Z,935.35
2018-07-22T02:07:20.219Z,935.32
2018-07-22T02:08:20.220Z,935.33
2018-07-22T02:09:20.220Z,935.37
2018-07-22T02:10:20.221Z,935.35
2018-07-22T02:11:20.221Z,935.31
2018-07-22T02:12:20.225Z,935.37
2018-07-22T02:13:20.222Z,935.37
2018-07-22T02:14:20.223Z,935.36
2018-07-22T02:15:20.223Z,935.34
2018-07-22T02:16:20.224Z,935.33
2018-07-22T02:17:20.223Z,935.32
2018-07-22T02:18:20.224Z,935.32
2018-07-22T02:19:20.223Z,935.33
2018-07-22T02:20:20.225Z,935.34
2018-07-22T02:21:20.226Z,935.38
2018-07-22T02:22:20.225Z,935.36
2018-07-22T02:23:20.226Z,935.33
2018-07-22T02:24:20.226Z,935.35
2018-07-22T02:25:20.226Z,935.36
2018-07-22T02:26:20.228Z,935.36
2018-07-22T02:27:20.227Z,935.41
2018-07-22T02:28:20.228Z,935.38
2018-07-22T02:29:20.229Z,935.39
2018-07-22T02:30:20.229Z,935.34
2018-07-22T02:31:20.233Z,935.34
2018-07-22T02:32:20.229Z,935.39
2018-07-22T02:33:20.231Z,935.38
2018-07-22T02:34:20.231Z,935.37
2018-07-22T02:35:20.231Z,935.33
2018-07-22T02:36:20.231Z,935.29
2018-07-22T02:37:20.231Z,935.35
2018-07-22T02:38:20.233Z,935.37
2018-07-22T02:39:20.235Z,935.30
2018-07-22T02:40:20.231Z,935.27
2018-07-22T02:41:20.233Z,935.27
2018-07-22T02:42:20.234Z,935.19
2018-07-22T02:43:20.234Z,935.21
2018-07-22T02:44:20.237Z,935.22
2018-07-22T02:45:20.234Z,935.22
2018-07-22T02:46:20.236Z,935.21
2018-07-22T02:47:20.236Z,935.18
2018-07-22T02:48:20.235Z,935.16
2018-07-22T02:49:20.237Z,935.21
2018-07-22T02:50:20.240Z,935.25
2018-07-22T02:51:20.290Z,935.26
2018-07-22T02:52:20.248Z,935.23
2018-07-22T02:53:20.238Z,935.24
2018-07-22T02:54:20.239Z,935.26
2018-07-22T02:55:20.239Z,935.22
2018-07-22T02:56:20.239Z,935.19
2018-07-22T02:57:20.243Z,935.22
2018-07-22T02:58:20.242Z,935.27
2018-07-22T02:59:20.241Z,935.20
2018-07-22T03:00:20.240Z,935.22
2018-07-22T03:01:20.240Z,935.21
2018-07-22T03:02:20.242Z,935.23
2018-07-22T03:03:20.268Z,935.20
2018-07-22T03:04:20.242Z,935.19
2018-07-22T03:05:20.244Z,935.24
2018-07-22T03:06:20.246Z,935.23
2018-07-22T03:07:20.244Z,935.19
2018-07-22T03:08:20.244Z,935.24
2018-07-22T03:09:20.297Z,935.22
2018-07-22T03:10:20.245Z,935.21
2018-07-22T03:11:20.246Z,935.22
2018-07-22T03:12:20.246Z,935.20
2018-07-22T03:13:20.245Z,935.22
2018-07-22T03:14:20.248Z,935.21
2018-07-22T03:15:20.247Z,935.17
2018-07-22T03:16:20.246Z,935.15
2018-07-22T03:17:20.247Z,935.18
2018-07-22T03:18:20.262Z,935.19
2018-07-22T03:19:20.249Z,935.15
2018-07-22T03:20:20.251Z,935.18
2018-07-22T03:21:20.248Z,935.21
2018-07-22T03:22:20.251Z,935.17
2018-07-22T03:23:20.251Z,935.16
2018-07-22T03:24:20.249Z,935.19
2018-07-22T03:25:20.250Z,935.22
2018-07-22T03:26:20.251Z,935.22
2018-07-22T03:27:20.252Z,935.21
2018-07-22T03:28:20.252Z,935.19
2018-07-22T03:29:20.256Z,935.19
2018-07-22T03:30:20.252Z,935.22
2018-07-22T03:31:20.253Z,935.22
2018-07-22T03:32:20.255Z,935.19
2018-07-22T03:33:20.253Z,935.22
2018-07-22T03:34:20.255Z,935.16
2018-07-22T03:35:20.255Z,935.22
2018-07-22T03:36:20.255Z,935.21
2018-07-22T03:37:20.255Z,935.23
2018-07-22T03:38:20.256Z,935.23
2018-07-22T03:39:20.256Z,935.25
2018-07-22T03:40:20.256Z,935.25
2018-07-22T03:41:20.257Z,935.29
2018-07-22T03:42:20.257Z,935.26
2018-07-22T03:43:20.258Z,935.25
2018-07-22T03:44:20.257Z,935.23
2018-07-22T03:45:20.258Z,935.25
2018-07-22T03:46:20.260Z,935.24
2018-07-22T03:47:20.268Z,935.25
2018-07-22T03:48:20.260Z,935.29
2018-07-22T03:49:20.259Z,935.26
2018-07-22T03:50:20.261Z,935.23
2018-07-22T03:51:20.265Z,935.28
2018-07-22T03:52:20.261Z,935.30
2018-07-22T03:53:20.260Z,935.30
2018-07-22T03:54:20.262Z,935.30
2018-07-22T03:55:20.262Z,935.34
2018-07-22T03:56:20.264Z,935.32
2018-07-22T03:57:20.263Z,935.29
2018-07-22T03:58:20.263Z,935.31
2018-07-22T03:59:20.264Z,935.29
2018-07-22T04:00:20.264Z,935.30
2018-07-22T04:01:20.266Z,935.29
2018-07-22T04:02:20.265Z,935.32
2018-07-22T04:03:20.265Z,935.31
2018-07-22T04:04:20.266Z,935.32
2018-07-22T04:05:20.267Z,935.39
2018-07-22T04:06:20.267Z,935.40
2018-07-22T04:07:20.270Z,935.39
2018-07-22T04:08:20.267Z,935.36
2018-07-22T04:09:20.268Z,935.35
2018-07-22T04:10:20.269Z,935.39
2018-07-22T04:11:20.268Z,935.39
2018-07-22T04:12:20.269Z,935.40
2018-07-22T04:13:20.269Z,935.43
2018-07-22T04:14:20.270Z,935.38
2018-07-22T04:15:20.271Z,935.42
2018-07-22T04:16:20.269Z,935.41
2018-07-22T04:17:20.270Z,935.43
2018-07-22T04:18:20.271Z,935.40
2018-07-22T04:19:20.271Z,935.40
2018-07-22T04:20:20.271Z,935.44
2018-07-22T04:21:20.322Z,935.42
2018-07-22T04:22:20.273Z,935.44
2018-07-22T04:23:20.273Z,935.41
2018-07-22T04:24:20.273Z,935.42
2018-07-22T04:25:20.273Z,935.43
2018-07-22T04:26:20.274Z,935.43
2018-07-22T04:27:20.278Z,935.41
2018-07-22T04:28:20.275Z,935.42
2018-07-22T04:29:20.275Z,935.44
2018-07-22T04:30:20.275Z,935.43
2018-07-22T04:31:20.276Z,935.42
2018-07-22T04:32:20.274Z,935.42
2018-07-22T04:33:20.279Z,935.45
2018-07-22T04:34:20.276Z,935.46
2018-07-22T04:35:20.277Z,935.45
2018-07-22T04:36:20.279Z,935.44
2018-07-22T04:37:20.277Z,935.45
2018-07-22T04:38:20.278Z,935.45
2018-07-22T04:39:20.279Z,935.45
2018-07-22T04:40:20.278Z,935.47
2018-07-22T04:41:20.279Z,935.47
2018-07-22T04:42:20.279Z,935.49
2018-07-22T04:43:20.306Z,935.53
2018-07-22T04:44:20.279Z,935.53
2018-07-22T04:45:20.279Z,935.54
2018-07-22T04:46:20.331Z,935.57
2018-07-22T04:47:20.281Z,935.54
2018-07-22T04:48:20.284Z,935.49
2018-07-22T04:49:20.281Z,935.51
2018-07-22T04:50:20.282Z,935.52
2018-07-22T04:51:20.283Z,935.48
2018-07-22T04:52:20.282Z,935.49
2018-07-22T04:53:20.284Z,935.53
2018-07-22T04:54:20.284Z,935.52
2018-07-22T04:55:20.285Z,935.51
2018-07-22T04:56:20.289Z,935.52
2018-07-22T04:57:20.284Z,935.54
2018-07-22T04:58:20.286Z,935.56
2018-07-22T04:59:20.286Z,935.61
2018-07-22T05:00:20.286Z,935.62
2018-07-22T05:01:20.286Z,935.61
2018-07-22T05:02:20.287Z,935.60
2018-07-22T05:03:20.288Z,935.60
2018-07-22T05:04:20.287Z,935.58
2018-07-22T05:05:20.288Z,935.59
2018-07-22T05:06:20.289Z,935.63
2018-07-22T05:07:20.289Z,935.65
2018-07-22T05:08:20.289Z,935.64
2018-07-22T05:09:20.297Z,935.64
2018-07-22T05:10:20.291Z,935.68
2018-07-22T05:11:20.291Z,935.65
2018-07-22T05:12:20.293Z,935.64
2018-07-22T05:13:20.291Z,935.65
2018-07-22T05:14:20.292Z,935.60
2018-07-22T05:15:20.298Z,935.63
2018-07-22T05:16:20.293Z,935.64
2018-07-22T05:17:20.294Z,935.67
2018-07-22T05:18:20.293Z,935.67
2018-07-22T05:19:20.294Z,935.66
2018-07-22T05:20:20.294Z,935.64
2018-07-22T05:21:20.293Z,935.69
2018-07-22T05:22:20.294Z,935.67
2018-07-22T05:23:20.297Z,935.69
2018-07-22T05:24:20.294Z,935.72
2018-07-22T05:25:20.295Z,935.75
2018-07-22T05:26:20.296Z,935.82
2018-07-22T05:27:20.296Z,935.77
2018-07-22T05:28:20.315Z,935.77
2018-07-22T05:29:20.296Z,935.81
2018-07-22T05:30:20.298Z,935.77
2018-07-22T05:31:20.298Z,935.80
2018-07-22T05:32:20.302Z,935.79
2018-07-22T05:33:20.298Z,935.80
2018-07-22T05:34:20.298Z,935.79
2018-07-22T05:35:20.304Z,935.79
2018-07-22T05:36:20.300Z,935.82
2018-07-22T05:37:20.300Z,935.82
2018-07-22T05:38:20.300Z,935.82
2018-07-22T05:39:20.301Z,935.82
2018-07-22T05:40:20.300Z,935.84
2018-07-22T05:41:20.301Z,935.86
2018-07-22T05:42:20.302Z,935.84
2018-07-22T05:43:20.302Z,935.86
2018-07-22T05:44:20.306Z,935.85
2018-07-22T05:45:20.301Z,935.82
2018-07-22T05:46:20.304Z,935.83
2018-07-22T05:47:20.303Z,935.79
2018-07-22T05:48:20.303Z,935.79
2018-07-22T05:49:20.304Z,935.79
2018-07-22T05:50:20.305Z,935.78
2018-07-22T05:51:20.306Z,935.82
2018-07-22T05:52:20.305Z,935.81
2018-07-22T05:53:20.306Z,935.80
2018-07-22T05:54:20.308Z,935.83
2018-07-22T05:55:20.307Z,935.84
2018-07-22T05:56:20.306Z,935.85
2018-07-22T05:57:20.310Z,935.87
2018-07-22T05:58:20.307Z,935.83
2018-07-22T05:59:20.311Z,935.85
2018-07-22T06:00:20.307Z,935.84
2018-07-22T06:01:20.308Z,935.85
2018-07-22T06:02:20.308Z,935.86
2018-07-22T06:03:20.308Z,935.89
2018-07-22T06:04:20.308Z,935.89
2018-07-22T06:05:20.312Z,935.86
2018-07-22T06:06:20.316Z,935.90
2018-07-22T06:07:20.312Z,935.89
2018-07-22T06:08:20.308Z,935.88
2018-07-22T06:09:20.310Z,935.93
2018-07-22T06:10:20.310Z,935.91
2018-07-22T06:11:20.312Z,935.93
2018-07-22T06:12:20.310Z,935.91
2018-07-22T06:13:20.310Z,935.93
2018-07-22T06:14:20.310Z,935.94
2018-07-22T06:15:20.312Z,935.92
2018-07-22T06:16:20.311Z,935.96
2018-07-22T06:17:20.312Z,935.93
2018-07-22T06:18:20.313Z,935.92
2018-07-22T06:19:20.312Z,935.89
2018-07-22T06:20:20.312Z,935.92
2018-07-22T06:21:20.314Z,935.95
2018-07-22T06:22:20.314Z,935.99
2018-07-22T06:23:20.367Z,935.95
2018-07-22T06:24:20.315Z,936.03
2018-07-22T06:25:20.314Z,936.01
2018-07-22T06:26:20.315Z,935.99
2018-07-22T06:27:20.316Z,936.03
2018-07-22T06:28:20.316Z,936.01
2018-07-22T06:29:20.316Z,936.01
2018-07-22T06:30:20.319Z,936.06
2018-07-22T06:31:20.317Z,936.03
2018-07-22T06:32:20.373Z,936.07
2018-07-22T06:33:20.318Z,936.10
2018-07-22T06:34:20.318Z,936.06
2018-07-22T06:35:20.364Z,936.09
2018-07-22T06:36:20.319Z,936.10
2018-07-22T06:37:20.318Z,936.06
2018-07-22T06:38:20.319Z,936.11
2018-07-22T06:39:20.321Z,936.11
2018-07-22T06:40:20.320Z,936.13
2018-07-22T06:41:20.321Z,936.15
2018-07-22T06:42:20.324Z,936.13
2018-07-22T06:43:20.322Z,936.17
2018-07-22T06:44:20.321Z,936.22
2018-07-22T06:45:20.321Z,936.21
2018-07-22T06:46:20.325Z,936.26
2018-07-22T06:47:20.324Z,936.28
2018-07-22T06:48:20.324Z,936.27
2018-07-22T06:49:20.324Z,936.18
2018-07-22T06:50:20.324Z,936.21
2018-07-22T06:51:20.326Z,936.18
2018-07-22T06:52:20.326Z,936.19
2018-07-22T06:53:20.327Z,936.17
2018-07-22T06:54:20.338Z,936.19
2018-07-22T06:55:20.329Z,936.17
2018-07-22T06:56:20.328Z,936.22
2018-07-22T06:57:20.376Z,936.20
2018-07-22T06:58:20.329Z,936.22
2018-07-22T06:59:20.330Z,936.26
2018-07-22T07:00:20.333Z,936.23
2018-07-22T07:01:20.331Z,936.23
2018-07-22T07:02:20.331Z,936.20
2018-07-22T07:03:20.335Z,936.23
2018-07-22T07:04:20.332Z,936.20
2018-07-22T07:05:20.345Z,936.21
2018-07-22T07:06:20.335Z,936.19
2018-07-22T07:07:20.335Z,936.20
2018-07-22T07:08:20.334Z,936.18
2018-07-22T07:09:20.336Z,936.22
2018-07-22T07:10:20.336Z,936.21
2018-07-22T07:11:20.337Z,936.20
2018-07-22T07:12:20.336Z,936.21
2018-07-22T07:13:20.337Z,936.24
2018-07-22T07:14:20.337Z,936.20
2018-07-22T07:15:20.338Z,936.18
2018-07-22T07:16:20.339Z,936.20
2018-07-22T07:17:20.340Z,936.18
2018-07-22T07:18:20.340Z,936.16
2018-07-22T07:19:20.342Z,936.19
2018-07-22T07:20:20.339Z,936.18
2018-07-22T07:21:20.340Z,936.25
2018-07-22T07:22:20.341Z,936.25
2018-07-22T07:23:20.342Z,936.26
2018-07-22T07:24:20.343Z,936.28
2018-07-22T07:25:20.342Z,936.26
2018-07-22T07:26:20.344Z,936.26
2018-07-22T07:27:20.342Z,936.26
2018-07-22T07:28:20.342Z,936.33
2018-07-22T07:29:20.343Z,936.30
2018-07-22T07:30:20.344Z,936.31
2018-07-22T07:31:20.344Z,936.24
2018-07-22T07:32:20.342Z,936.32
2018-07-22T07:33:20.343Z,936.33
2018-07-22T07:34:20.419Z,936.34
2018-07-22T07:35:20.344Z,936.35
2018-07-22T07:36:20.344Z,936.37
2018-07-22T07:37:20.348Z,936.35
2018-07-22T07:38:20.345Z,936.30
2018-07-22T07:39:20.345Z,936.36
2018-07-22T07:40:20.345Z,936.38
2018-07-22T07:41:20.346Z,936.40
2018-07-22T07:42:20.412Z,936.37
2018-07-22T07:43:20.347Z,936.38
2018-07-22T07:44:20.349Z,936.35
2018-07-22T07:45:20.346Z,936.38
2018-07-22T07:46:20.348Z,936.36
2018-07-22T07:47:20.348Z,936.35
2018-07-22T07:48:20.346Z,936.37
2018-07-22T07:49:20.347Z,936.30
2018-07-22T07:50:20.347Z,936.36
2018-07-22T07:51:20.349Z,936.34
2018-07-22T07:52:20.348Z,936.39
2018-07-22T07:53:20.389Z,936.39
2018-07-22T07:54:20.349Z,936.43
2018-07-22T07:55:20.350Z,936.41
2018-07-22T07:56:20.349Z,936.41
2018-07-22T07:57:20.350Z,936.42
2018-07-22T07:58:20.350Z,936.47
2018-07-22T07:59:20.352Z,936.47
2018-07-22T08:00:20.353Z,936.47
2018-07-22T08:01:20.760Z,936.49
2018-07-22T08:02:20.351Z,936.50
2018-07-22T08:03:20.351Z,936.49
2018-07-22T08:04:20.352Z,936.47
2018-07-22T08:05:20.353Z,936.48
2018-07-22T08:06:20.354Z,936.48
2018-07-22T08:07:20.355Z,936.47
2018-07-22T08:08:20.354Z,936.44
2018-07-22T08:09:20.356Z,936.43
2018-07-22T08:10:20.355Z,936.49
2018-07-22T08:11:20.356Z,936.46
2018-07-22T08:12:20.356Z,936.47
2018-07-22T08:13:20.357Z,936.47
2018-07-22T08:14:20.358Z,936.46
2018-07-22T08:15:20.358Z,936.40
2018-07-22T08:16:20.362Z,936.47
2018-07-22T08:17:20.358Z,936.49
2018-07-22T08:18:20.362Z,936.50
2018-07-22T08:19:20.361Z,936.51
2018-07-22T08:20:20.360Z,936.49
2018-07-22T08:21:20.367Z,936.50
2018-07-22T08:22:20.759Z,936.52
2018-07-22T08:23:20.539Z,936.49
2018-07-22T08:24:20.363Z,936.54
2018-07-22T08:25:20.363Z,936.49
2018-07-22T08:26:20.364Z,936.48
2018-07-22T08:27:20.365Z,936.47
2018-07-22T08:28:20.363Z,936.51
2018-07-22T08:29:20.366Z,936.50
2018-07-22T08:30:20.366Z,936.55
2018-07-22T08:31:20.369Z,936.53
2018-07-22T08:32:20.367Z,936.51
2018-07-22T08:33:20.368Z,936.55
2018-07-22T08:34:20.369Z,936.51
2018-07-22T08:35:20.369Z,936.48
2018-07-22T08:36:20.369Z,936.52
2018-07-22T08:37:20.371Z,936.53
2018-07-22T08:38:20.370Z,936.56
2018-07-22T08:39:20.372Z,936.51
2018-07-22T08:40:20.372Z,936.54
2018-07-22T08:41:20.378Z,936.54
2018-07-22T08:42:20.373Z,936.56
2018-07-22T08:43:20.374Z,936.57
2018-07-22T08:44:20.375Z,936.55
2018-07-22T08:45:20.375Z,936.56
2018-07-22T08:46:20.377Z,936.54
2018-07-22T08:47:20.376Z,936.54
2018-07-22T08:48:20.377Z,936.54
2018-07-22T08:49:20.380Z,936.54
2018-07-22T08:50:20.379Z,936.56
2018-07-22T08:51:20.379Z,936.54
2018-07-22T08:52:20.378Z,936.53
2018-07-22T08:53:20.426Z,936.55
2018-07-22T08:54:20.380Z,936.58
2018-07-22T08:55:20.381Z,936.59
2018-07-22T08:56:20.381Z,936.57
2018-07-22T08:57:20.381Z,936.58
2018-07-22T08:58:20.382Z,936.58
2018-07-22T08:59:20.384Z,936.54
2018-07-22T09:00:20.384Z,936.55
2018-07-22T09:01:20.385Z,936.57
2018-07-22T09:02:20.385Z,936.57
2018-07-22T09:03:20.386Z,936.55
2018-07-22T09:04:20.385Z,936.55
2018-07-22T09:05:20.388Z,936.58
2018-07-22T09:06:20.388Z,936.56
2018-07-22T09:07:20.677Z,936.58
2018-07-22T09:08:20.408Z,936.62
2018-07-22T09:09:20.389Z,936.62
2018-07-22T09:10:20.389Z,936.61
2018-07-22T09:11:20.391Z,936.71
2018-07-22T09:12:20.390Z,936.63
2018-07-22T09:13:20.392Z,936.63
2018-07-22T09:14:20.391Z,936.62
2018-07-22T09:15:20.396Z,936.61
2018-07-22T09:16:20.393Z,936.63
2018-07-22T09:17:20.393Z,936.58
2018-07-22T09:18:20.395Z,936.60
2018-07-22T09:19:20.396Z,936.62
2018-07-22T09:20:20.395Z,936.60
2018-07-22T09:21:20.396Z,936.57
2018-07-22T09:22:20.397Z,936.60
2018-07-22T09:23:20.398Z,936.61
2018-07-22T09:24:20.399Z,936.64
2018-07-22T09:25:20.399Z,936.62
2018-07-22T09:26:20.399Z,936.61
2018-07-22T09:27:20.404Z,936.62
2018-07-22T09:28:20.401Z,936.63
2018-07-22T09:29:20.405Z,936.63
2018-07-22T09:30:20.404Z,936.62
2018-07-22T09:31:20.473Z,936.62
2018-07-22T09:32:20.404Z,936.62
2018-07-22T09:33:20.405Z,936.60
2018-07-22T09:34:20.409Z,936.58
2018-07-22T09:35:20.408Z,936.62
2018-07-22T09:36:20.576Z,936.61
2018-07-22T09:37:20.410Z,936.57
2018-07-22T09:38:20.411Z,936.61
2018-07-22T09:39:20.413Z,936.63
2018-07-22T09:40:20.412Z,936.63
2018-07-22T09:41:20.413Z,936.67
2018-07-22T09:42:20.939Z,936.66
2018-07-22T09:43:20.417Z,936.64
2018-07-22T09:44:20.416Z,936.67
2018-07-22T09:45:20.418Z,936.67
2018-07-22T09:46:20.419Z,936.67
2018-07-22T09:47:20.421Z,936.67
2018-07-22T09:48:20.422Z,936.63
2018-07-22T09:49:20.423Z,936.65
2018-07-22T09:50:20.424Z,936.65
2018-07-22T09:51:20.425Z,936.66
2018-07-22T09:52:20.427Z,936.65
2018-07-22T09:53:20.427Z,936.67
2018-07-22T09:54:20.429Z,936.66
2018-07-22T09:55:20.431Z,936.71
2018-07-22T09:56:20.431Z,936.74
2018-07-22T09:57:20.433Z,936.74
2018-07-22T09:58:20.435Z,936.74
2018-07-22T09:59:20.480Z,936.74
2018-07-22T10:00:20.439Z,936.75
2018-07-22T10:01:20.442Z,936.74
2018-07-22T10:02:20.440Z,936.73
2018-07-22T10:03:20.446Z,936.75
2018-07-22T10:04:20.443Z,936.74
2018-07-22T10:05:20.444Z,936.75
2018-07-22T10:06:20.448Z,936.78
2018-07-22T10:07:20.450Z,936.75
2018-07-22T10:08:20.451Z,936.75
2018-07-22T10:09:20.453Z,936.73
2018-07-22T10:10:20.455Z,936.75
2018-07-22T10:11:20.457Z,936.77
2018-07-22T10:12:20.458Z,936.76
2018-07-22T10:13:20.461Z,936.74
2018-07-22T10:14:20.472Z,936.74
2018-07-22T10:15:20.464Z,936.75
2018-07-22T10:16:20.465Z,936.71
2018-07-22T10:17:20.468Z,936.75
2018-07-22T10:18:20.470Z,936.73
2018-07-22T10:19:20.472Z,936.75
2018-07-22T10:20:20.475Z,936.75
2018-07-22T10:21:20.477Z,936.74
2018-07-22T10:22:20.478Z,936.72
2018-07-22T10:23:20.517Z,936.69
2018-07-22T10:24:20.482Z,936.68
2018-07-22T10:25:20.486Z,936.69
2018-07-22T10:26:20.491Z,936.69
2018-07-22T10:27:20.489Z,936.75
2018-07-22T10:28:20.491Z,936.70
2018-07-22T10:29:20.494Z,936.74
2018-07-22T10:30:20.495Z,936.72
2018-07-22T10:31:20.498Z,936.76
2018-07-22T10:32:20.512Z,936.71
2018-07-22T10:33:20.502Z,936.72
2018-07-22T10:34:20.504Z,936.74
2018-07-22T10:35:20.511Z,936.73
2018-07-22T10:36:20.510Z,936.74
2018-07-22T10:37:20.512Z,936.75
2018-07-22T10:38:20.514Z,936.78
2018-07-22T10:39:20.520Z,936.77
2018-07-22T10:40:20.520Z,936.76
2018-07-22T10:41:20.521Z,936.79
2018-07-22T10:42:20.523Z,936.76
2018-07-22T10:43:20.564Z,936.78
2018-07-22T10:44:20.527Z,936.79
2018-07-22T10:45:20.530Z,936.79
2018-07-22T10:46:20.533Z,936.82
2018-07-22T10:47:20.534Z,936.79
2018-07-22T10:48:20.536Z,936.80
2018-07-22T10:49:20.539Z,936.82
2018-07-22T10:50:20.548Z,936.83
2018-07-22T10:51:20.544Z,936.85
2018-07-22T10:52:20.545Z,936.84
2018-07-22T10:53:20.548Z,936.81
2018-07-22T10:54:20.550Z,936.83
2018-07-22T10:55:20.554Z,936.80
2018-07-22T10:56:20.554Z,936.83
2018-07-22T10:57:20.559Z,936.80
2018-07-22T10:58:20.558Z,936.80
2018-07-22T10:59:20.560Z,936.80
2018-07-22T11:00:20.562Z,936.80
2018-07-22T11:01:20.565Z,936.78
2018-07-22T11:02:20.609Z,936.85
2018-07-22T11:03:20.633Z,936.83
2018-07-22T11:04:20.571Z,936.85
2018-07-22T11:05:20.573Z,936.86
2018-07-22T11:06:20.575Z,936.88
2018-07-22T11:07:20.580Z,936.87
2018-07-22T11:08:20.579Z,936.86
2018-07-22T11:09:20.580Z,936.89
2018-07-22T11:10:20.585Z,936.82
2018-07-22T11:11:20.585Z,936.87
2018-07-22T11:12:20.586Z,936.90
2018-07-22T11:13:20.589Z,936.89
2018-07-22T11:14:20.905Z,936.90
2018-07-22T11:15:20.594Z,936.90
2018-07-22T11:16:20.850Z,936.91
2018-07-22T11:17:20.599Z,936.91
2018-07-22T11:18:20.599Z,936.90
2018-07-22T11:19:20.601Z,936.89
2018-07-22T11:20:20.603Z,936.89
2018-07-22T11:21:20.741Z,936.87
2018-07-22T11:22:20.608Z,936.87
2018-07-22T11:23:20.608Z,936.89
2018-07-22T11:24:20.609Z,936.88
2018-07-22T11:25:20.614Z,936.88
2018-07-22T11:26:20.613Z,936.86
2018-07-22T11:27:20.616Z,936.85
2018-07-22T11:28:20.617Z,936.87
2018-07-22T11:29:20.620Z,936.82
2018-07-22T11:30:20.621Z,936.89
2018-07-22T11:31:20.623Z,936.89
2018-07-22T11:32:20.624Z,936.88
2018-07-22T11:33:20.625Z,936.87
2018-07-22T11:34:20.628Z,936.89
2018-07-22T11:35:20.630Z,936.90
2018-07-22T11:36:20.638Z,936.89
2018-07-22T11:37:20.632Z,936.91
2018-07-22T11:38:20.634Z,936.89
2018-07-22T11:39:20.637Z,936.88
2018-07-22T11:40:20.637Z,936.90
2018-07-22T11:41:20.637Z,936.91
2018-07-22T11:42:20.641Z,936.88
2018-07-22T11:43:20.642Z,936.90
2018-07-22T11:44:20.644Z,936.92
2018-07-22T11:45:20.646Z,936.94
2018-07-22T11:46:20.649Z,936.89
2018-07-22T11:47:20.647Z,936.93
2018-07-22T11:48:20.648Z,936.91
2018-07-22T11:49:20.650Z,936.93
2018-07-22T11:50:20.654Z,936.91
2018-07-22T11:51:20.654Z,936.89
2018-07-22T11:52:21.847Z,936.97
2018-07-22T11:53:20.655Z,936.96
2018-07-22T11:54:20.657Z,936.93
2018-07-22T11:55:20.659Z,936.94
2018-07-22T11:56:20.659Z,936.89
2018-07-22T11:57:20.661Z,936.89
2018-07-22T11:58:20.663Z,936.86
2018-07-22T11:59:20.664Z,936.86
2018-07-22T12:00:20.665Z,936.87
2018-07-22T12:01:20.691Z,936.88
2018-07-22T12:02:20.668Z,936.87
2018-07-22T12:03:20.668Z,936.88
2018-07-22T12:04:20.670Z,936.82
2018-07-22T12:05:20.763Z,936.85
2018-07-22T12:06:20.715Z,936.82
2018-07-22T12:07:20.763Z,936.82
2018-07-22T12:08:20.718Z,936.84
2018-07-22T12:09:20.703Z,936.84
2018-07-22T12:10:20.703Z,936.87
2018-07-22T12:11:20.726Z,936.83
2018-07-22T12:12:20.720Z,936.81
2018-07-22T12:13:20.699Z,936.78
2018-07-22T12:14:20.766Z,936.80
2018-07-22T12:15:20.762Z,936.80
2018-07-22T12:16:20.682Z,936.82
2018-07-22T12:17:20.693Z,936.83
2018-07-22T12:18:20.694Z,936.82
2018-07-22T12:19:20.746Z,936.82
2018-07-22T12:20:20.770Z,936.80
2018-07-22T12:21:20.798Z,936.79
2018-07-22T12:22:20.725Z,936.76
2018-07-22T12:23:20.704Z,936.80
2018-07-22T12:24:20.717Z,936.81
2018-07-22T12:25:20.697Z,936.80
2018-07-22T12:26:20.731Z,936.80
2018-07-22T12:27:20.697Z,936.80
2018-07-22T12:28:20.779Z,936.78